createdAt,value
2023-01-19T00:01:42.395Z,20.24
2023-01-19T00:04:10.897Z,20.23
2023-01-19T00:06:39.369Z,20.22
2023-01-19T00:09:07.795Z,20.20
2023-01-19T00:11:36.634Z,20.21
2023-01-19T00:14:05.621Z,20.19
2023-01-19T00:16:35.465Z,20.18
2023-01-19T00:19:04.301Z,20.18
2023-01-19T00:21:32.755Z,20.18
2023-01-19T00:24:01.256Z,20.16
2023-01-19T00:26:29.663Z,20.14
2023-01-19T00:28:58.221Z,20.12
2023-01-19T00:31:29.946Z,20.13
2023-01-19T00:33:59.761Z,20.12
2023-01-19T00:36:28.152Z,20.12
2023-01-19T00:38:56.665Z,20.10
2023-01-19T00:41:39.452Z,20.12
2023-01-19T00:44:08.156Z,20.13
2023-01-19T00:46:36.655Z,20.12
2023-01-19T00:49:07.083Z,20.11
2023-01-19T00:51:35.636Z,20.11
2023-01-19T00:54:04.952Z,20.10
2023-01-19T00:56:33.504Z,20.09
2023-01-19T00:59:01.878Z,20.09
2023-01-19T01:01:45.381Z,20.11
2023-01-19T01:04:16.374Z,20.08
2023-01-19T01:06:44.766Z,20.09
2023-01-19T01:09:13.214Z,20.08
2023-01-19T01:11:42.397Z,20.07
2023-01-19T01:14:12.175Z,20.07
2023-01-19T01:16:41.533Z,20.07
2023-01-19T01:19:10.322Z,20.07
2023-01-19T01:21:40.126Z,20.06
2023-01-19T01:24:10.502Z,20.06
2023-01-19T01:26:39.572Z,20.06
2023-01-19T01:29:08.570Z,20.07
2023-01-19T01:31:37.023Z,20.05
2023-01-19T01:34:05.572Z,20.04
2023-01-19T01:36:34.129Z,20.03
2023-01-19T01:39:04.719Z,20.04
2023-01-19T01:41:33.290Z,20.03
2023-01-19T01:44:06.127Z,20.02
2023-01-19T01:46:35.098Z,20.02
2023-01-19T01:49:07.347Z,20.02
2023-01-19T01:51:40.080Z,20.01
2023-01-19T01:54:16.539Z,20.02
2023-01-19T01:56:47.751Z,20.01
2023-01-19T01:59:26.032Z,19.99
2023-01-19T02:02:19.937Z,20.00
2023-01-19T02:04:51.612Z,19.99
2023-01-19T02:07:45.316Z,19.99
2023-01-19T02:10:33.219Z,19.98
2023-01-19T02:13:19.421Z,19.97
2023-01-19T02:15:48.059Z,19.98
2023-01-19T02:18:16.686Z,19.98
2023-01-19T02:20:51.925Z,19.98
2023-01-19T02:23:31.670Z,19.96
2023-01-19T02:26:01.690Z,19.97
2023-01-19T02:28:31.905Z,19.96
2023-01-19T02:31:00.373Z,19.95
2023-01-19T02:33:29.518Z,19.95
2023-01-19T02:35:58.546Z,19.95
2023-01-19T02:38:30.081Z,19.95
2023-01-19T02:41:02.021Z,19.93
2023-01-19T02:43:32.077Z,19.94
2023-01-19T02:46:00.737Z,19.93
2023-01-19T02:48:29.160Z,19.93
2023-01-19T02:51:04.214Z,19.93
2023-01-19T02:54:13.959Z,19.93
2023-01-19T02:56:58.512Z,19.93
2023-01-19T02:59:41.104Z,19.92
2023-01-19T03:02:22.289Z,19.92
2023-01-19T03:05:06.509Z,19.92
2023-01-19T03:07:50.390Z,19.92
2023-01-19T03:10:27.159Z,19.91
2023-01-19T03:13:03.316Z,19.91
2023-01-19T03:15:38.487Z,19.89
2023-01-19T03:18:11.268Z,19.90
2023-01-19T03:20:41.439Z,19.89
2023-01-19T03:23:13.827Z,19.90
2023-01-19T03:25:47.474Z,19.88
2023-01-19T03:28:19.741Z,19.88
2023-01-19T03:31:00.182Z,19.88
2023-01-19T03:33:32.681Z,19.88
2023-01-19T03:36:06.413Z,19.89
2023-01-19T03:38:38.297Z,19.87
2023-01-19T03:41:11.835Z,19.87
2023-01-19T03:43:41.690Z,19.87
2023-01-19T03:46:11.722Z,19.87
2023-01-19T03:48:40.351Z,19.87
2023-01-19T03:51:10.867Z,19.87
2023-01-19T03:53:39.298Z,19.86
2023-01-19T03:56:18.888Z,19.86
2023-01-19T03:58:47.579Z,19.85
2023-01-19T04:01:17.231Z,19.85
2023-01-19T04:03:47.123Z,19.85
2023-01-19T04:06:16.078Z,19.83
2023-01-19T04:08:44.870Z,19.83
2023-01-19T04:11:14.617Z,19.83
2023-01-19T04:13:43.269Z,19.84
2023-01-19T04:16:12.367Z,19.83
2023-01-19T04:18:42.262Z,19.82
2023-01-19T04:21:10.948Z,19.83
2023-01-19T04:23:39.322Z,19.82
2023-01-19T04:26:09.490Z,19.81
2023-01-19T04:28:39.420Z,19.82
2023-01-19T04:31:08.523Z,19.82
2023-01-19T04:33:37.086Z,19.82
2023-01-19T04:36:06.311Z,19.82
2023-01-19T04:38:35.032Z,19.81
2023-01-19T04:41:03.463Z,19.81
2023-01-19T04:43:31.964Z,19.81
2023-01-19T04:46:02.172Z,19.81
2023-01-19T04:48:30.643Z,19.81
2023-01-19T04:50:59.068Z,19.81
2023-01-19T04:53:27.510Z,19.78
2023-01-19T04:55:56.368Z,19.80
2023-01-19T04:58:24.747Z,19.80
2023-01-19T05:00:53.244Z,19.79
2023-01-19T05:03:24.955Z,19.80
2023-01-19T05:05:54.221Z,19.77
2023-01-19T05:08:22.699Z,19.78
2023-01-19T05:10:51.250Z,19.78
2023-01-19T05:13:19.749Z,19.77
2023-01-19T05:15:48.193Z,19.77
2023-01-19T05:18:16.785Z,19.77
2023-01-19T05:20:46.801Z,19.77
2023-01-19T05:23:15.271Z,19.76
2023-01-19T05:25:44.536Z,19.77
2023-01-19T05:28:13.123Z,19.78
2023-01-19T05:30:41.619Z,19.83
2023-01-19T05:33:10.076Z,19.89
2023-01-19T05:35:38.537Z,19.99
2023-01-19T05:38:08.291Z,20.17
2023-01-19T05:40:36.650Z,20.38
2023-01-19T05:43:05.432Z,20.57
2023-01-19T05:45:34.309Z,20.82
2023-01-19T05:48:02.956Z,21.06
2023-01-19T05:50:31.617Z,21.29
2023-01-19T05:53:01.088Z,21.47
2023-01-19T05:55:31.148Z,21.60
2023-01-19T05:57:59.609Z,21.73
2023-01-19T06:00:29.215Z,21.88
2023-01-19T06:02:57.773Z,21.96
2023-01-19T06:05:26.293Z,22.06
2023-01-19T06:07:57.390Z,22.13
2023-01-19T06:10:25.954Z,22.18
2023-01-19T06:12:55.711Z,22.23
2023-01-19T06:15:24.196Z,22.30
2023-01-19T06:17:52.636Z,22.40
2023-01-19T06:20:21.047Z,22.42
2023-01-19T06:22:49.503Z,22.44
2023-01-19T06:25:18.119Z,22.47
2023-01-19T06:27:46.577Z,22.49
2023-01-19T06:30:17.080Z,22.54
2023-01-19T06:32:45.490Z,22.61
2023-01-19T06:35:14.330Z,22.65
2023-01-19T06:37:42.776Z,22.68
2023-01-19T06:40:14.375Z,22.69
2023-01-19T06:42:42.958Z,22.70
2023-01-19T06:45:11.861Z,22.70
2023-01-19T06:47:41.615Z,22.69
2023-01-19T06:50:11.669Z,22.68
2023-01-19T06:52:42.403Z,22.66
2023-01-19T06:55:11.891Z,22.68
2023-01-19T06:57:40.691Z,22.68
2023-01-19T07:00:11.651Z,22.66
2023-01-19T07:02:43.702Z,22.64
2023-01-19T07:05:14.402Z,22.63
2023-01-19T07:07:44.790Z,22.59
2023-01-19T07:10:15.639Z,22.56
2023-01-19T07:12:46.459Z,22.53
2023-01-19T07:15:15.576Z,22.49
2023-01-19T07:17:45.463Z,22.44
2023-01-19T07:20:15.031Z,22.41
2023-01-19T07:22:45.697Z,22.34
2023-01-19T07:25:14.822Z,22.26
2023-01-19T07:27:44.865Z,22.20
2023-01-19T07:30:16.123Z,22.16
2023-01-19T07:32:45.981Z,22.13
2023-01-19T07:35:15.440Z,22.09
2023-01-19T07:37:43.911Z,22.05
2023-01-19T07:40:13.184Z,21.99
2023-01-19T07:42:46.469Z,21.93
2023-01-19T07:45:15.196Z,21.89
2023-01-19T07:47:46.264Z,21.82
2023-01-19T07:50:14.902Z,21.74
2023-01-19T07:52:43.708Z,21.64
2023-01-19T07:55:12.255Z,21.55
2023-01-19T07:57:40.774Z,21.48
2023-01-19T08:00:10.635Z,21.41
2023-01-19T08:02:42.150Z,21.34
2023-01-19T08:05:13.261Z,21.28
2023-01-19T08:07:41.666Z,21.21
2023-01-19T08:10:11.133Z,21.14
2023-01-19T08:12:39.562Z,21.07
2023-01-19T08:15:09.371Z,21.01
2023-01-19T08:17:37.941Z,20.98
2023-01-19T08:20:09.222Z,20.95
2023-01-19T08:22:39.008Z,20.92
2023-01-19T08:25:07.904Z,20.89
2023-01-19T08:27:36.311Z,20.89
2023-01-19T08:30:05.522Z,20.85
2023-01-19T08:32:33.935Z,20.85
2023-01-19T08:35:02.425Z,20.88
2023-01-19T08:37:32.666Z,20.89
2023-01-19T08:40:03.905Z,20.92
2023-01-19T08:42:32.365Z,20.95
2023-01-19T08:45:00.850Z,20.97
2023-01-19T08:47:30.205Z,21.00
2023-01-19T08:49:58.717Z,21.02
2023-01-19T08:52:29.262Z,21.06
2023-01-19T08:54:57.741Z,21.11
2023-01-19T08:57:28.246Z,21.15
2023-01-19T08:59:56.673Z,21.18
2023-01-19T09:02:25.166Z,21.20
2023-01-19T09:04:53.651Z,21.21
2023-01-19T09:07:22.153Z,21.20
2023-01-19T09:09:50.570Z,21.20
2023-01-19T09:12:18.958Z,21.19
2023-01-19T09:14:48.855Z,21.18
2023-01-19T09:17:18.099Z,21.18
2023-01-19T09:19:46.519Z,21.18
2023-01-19T09:22:14.979Z,21.17
2023-01-19T09:24:43.416Z,21.19
2023-01-19T09:27:11.883Z,21.19
2023-01-19T09:29:40.397Z,21.18
2023-01-19T09:32:11.293Z,21.15
2023-01-19T09:34:39.691Z,21.13
2023-01-19T09:37:08.871Z,21.13
2023-01-19T09:39:37.592Z,21.11
2023-01-19T09:42:24.119Z,21.11
2023-01-19T09:44:54.364Z,21.11
2023-01-19T09:47:28.182Z,21.11
2023-01-19T09:50:02.180Z,21.11
2023-01-19T09:52:32.698Z,21.11
2023-01-19T09:55:01.155Z,21.13
2023-01-19T09:57:30.226Z,21.10
2023-01-19T09:59:59.602Z,21.06
2023-01-19T10:02:38.077Z,20.99
2023-01-19T10:05:22.355Z,20.94
2023-01-19T10:08:06.092Z,20.94
2023-01-19T10:10:36.780Z,20.93
2023-01-19T10:13:29.899Z,20.93
2023-01-19T10:16:08.354Z,20.92
2023-01-19T10:18:47.446Z,20.91
2023-01-19T10:21:20.257Z,20.92
2023-01-19T10:23:52.159Z,20.91
2023-01-19T10:26:25.388Z,20.93
2023-01-19T10:28:58.812Z,20.93
2023-01-19T10:31:27.369Z,20.93
2023-01-19T10:33:57.238Z,20.96
2023-01-19T10:36:30.166Z,20.96
2023-01-19T10:38:59.177Z,20.97
2023-01-19T10:41:37.516Z,20.96
2023-01-19T10:44:09.432Z,20.99
2023-01-19T10:46:43.252Z,20.99
2023-01-19T10:49:25.583Z,21.00
2023-01-19T10:51:55.266Z,21.00
2023-01-19T10:54:24.648Z,21.01
2023-01-19T10:56:56.519Z,21.01
2023-01-19T10:59:33.787Z,21.01
2023-01-19T11:02:20.692Z,21.00
2023-01-19T11:04:53.902Z,21.00
2023-01-19T11:07:24.502Z,21.00
2023-01-19T11:10:14.097Z,20.99
2023-01-19T11:12:44.309Z,20.99
2023-01-19T11:15:17.468Z,20.97
2023-01-19T11:17:48.148Z,20.99
2023-01-19T11:20:24.408Z,21.01
2023-01-19T11:23:05.526Z,21.01
2023-01-19T11:25:36.652Z,21.02
2023-01-19T11:28:06.164Z,21.02
2023-01-19T11:30:36.073Z,21.03
2023-01-19T11:33:06.126Z,21.02
2023-01-19T11:35:38.976Z,21.02
2023-01-19T11:38:15.200Z,21.01
2023-01-19T11:40:51.734Z,21.00
2023-01-19T11:43:21.768Z,20.95
2023-01-19T11:45:50.409Z,20.92
2023-01-19T11:48:26.521Z,20.90
2023-01-19T11:51:01.556Z,20.88
2023-01-19T11:53:34.258Z,20.87
2023-01-19T11:56:05.708Z,20.85
2023-01-19T11:58:39.576Z,20.78
2023-01-19T12:01:20.812Z,20.70
2023-01-19T12:03:56.124Z,20.70
2023-01-19T12:06:30.491Z,20.69
2023-01-19T12:09:03.377Z,20.71
2023-01-19T12:11:35.675Z,20.72
2023-01-19T12:14:05.332Z,20.73
2023-01-19T12:16:35.545Z,20.75
2023-01-19T12:19:07.768Z,20.76
2023-01-19T12:21:38.788Z,20.77
2023-01-19T12:24:16.235Z,20.79
2023-01-19T12:26:52.341Z,20.80
2023-01-19T12:29:23.349Z,20.82
2023-01-19T12:32:19.486Z,20.83
2023-01-19T12:34:49.390Z,20.83
2023-01-19T12:37:40.526Z,20.85
2023-01-19T12:40:27.371Z,20.85
2023-01-19T12:43:01.198Z,20.86
2023-01-19T12:45:34.764Z,20.86
2023-01-19T12:48:04.950Z,20.88
2023-01-19T12:50:37.643Z,20.88
2023-01-19T12:53:18.334Z,20.87
2023-01-19T12:55:47.626Z,20.87
2023-01-19T12:58:18.958Z,20.86
2023-01-19T13:00:50.516Z,20.85
2023-01-19T13:03:45.393Z,20.86
2023-01-19T13:06:14.024Z,20.86
2023-01-19T13:09:01.592Z,20.84
2023-01-19T13:11:34.304Z,20.84
2023-01-19T13:14:35.651Z,20.86
2023-01-19T13:17:33.512Z,20.85
2023-01-19T13:20:18.822Z,20.87
2023-01-19T13:23:24.865Z,20.87
2023-01-19T13:26:02.625Z,20.91
2023-01-19T13:28:40.137Z,20.91
2023-01-19T13:31:09.941Z,20.93
2023-01-19T13:33:52.637Z,20.91
2023-01-19T13:36:28.636Z,20.92
2023-01-19T13:38:59.322Z,20.92
2023-01-19T13:41:33.145Z,20.94
2023-01-19T13:44:04.291Z,20.93
2023-01-19T13:46:34.628Z,20.93
2023-01-19T13:49:10.762Z,20.92
2023-01-19T13:51:39.438Z,20.91
2023-01-19T13:54:17.217Z,20.91
2023-01-19T13:56:51.013Z,20.90
2023-01-19T13:59:19.490Z,20.88
2023-01-19T14:01:49.154Z,20.88
2023-01-19T14:04:29.068Z,20.87
2023-01-19T14:06:59.711Z,20.87
2023-01-19T14:09:28.234Z,20.87
2023-01-19T14:12:12.057Z,20.87
2023-01-19T14:14:41.133Z,20.87
2023-01-19T14:17:23.069Z,20.88
2023-01-19T14:19:52.799Z,20.89
2023-01-19T14:22:21.563Z,20.91
2023-01-19T14:24:50.123Z,20.90
2023-01-19T14:27:25.142Z,20.92
2023-01-19T14:29:54.836Z,20.93
2023-01-19T14:32:27.750Z,20.94
2023-01-19T14:35:15.375Z,20.99
2023-01-19T14:37:48.447Z,21.03
2023-01-19T14:40:19.895Z,21.08
2023-01-19T14:42:53.939Z,21.08
2023-01-19T14:45:23.592Z,21.13
2023-01-19T14:47:57.671Z,21.14
2023-01-19T14:50:29.001Z,21.12
2023-01-19T14:53:01.190Z,21.05
2023-01-19T14:55:34.353Z,21.02
2023-01-19T14:58:11.480Z,20.97
2023-01-19T15:00:40.401Z,20.98
2023-01-19T15:03:09.888Z,21.00
2023-01-19T15:05:38.652Z,21.05
2023-01-19T15:08:08.728Z,21.12
2023-01-19T15:10:37.491Z,21.16
2023-01-19T15:13:07.395Z,21.22
2023-01-19T15:15:36.530Z,21.27
2023-01-19T15:18:07.506Z,21.28
2023-01-19T15:20:35.936Z,21.32
2023-01-19T15:23:04.392Z,21.35
2023-01-19T15:25:34.920Z,21.38
2023-01-19T15:28:04.080Z,21.40
2023-01-19T15:30:34.269Z,21.41
2023-01-19T15:33:03.009Z,21.42
2023-01-19T15:35:31.539Z,21.43
2023-01-19T15:38:00.011Z,21.43
2023-01-19T15:40:28.625Z,21.42
2023-01-19T15:42:57.098Z,21.42
2023-01-19T15:45:47.897Z,21.41
2023-01-19T15:48:16.558Z,21.39
2023-01-19T15:50:46.037Z,21.35
2023-01-19T15:53:16.682Z,21.32
2023-01-19T15:55:46.111Z,21.31
2023-01-19T15:58:14.714Z,21.28
2023-01-19T16:00:44.590Z,21.25
2023-01-19T16:03:13.447Z,21.20
2023-01-19T16:05:43.397Z,21.14
2023-01-19T16:08:12.786Z,21.07
2023-01-19T16:10:41.740Z,21.02
2023-01-19T16:13:11.706Z,20.97
2023-01-19T16:15:42.186Z,20.94
2023-01-19T16:18:12.092Z,20.90
2023-01-19T16:20:40.931Z,20.88
2023-01-19T16:23:14.853Z,20.85
2023-01-19T16:25:44.212Z,20.84
2023-01-19T16:28:12.945Z,20.81
2023-01-19T16:30:41.633Z,20.80
2023-01-19T16:33:13.732Z,20.81
2023-01-19T16:35:42.408Z,20.81
2023-01-19T16:38:11.334Z,20.81
2023-01-19T16:40:39.895Z,20.82
2023-01-19T16:43:08.427Z,20.83
2023-01-19T16:45:40.617Z,20.85
2023-01-19T16:48:09.098Z,20.86
2023-01-19T16:50:38.896Z,20.87
2023-01-19T16:53:07.396Z,20.89
2023-01-19T16:55:35.821Z,20.89
2023-01-19T16:58:04.305Z,20.91
2023-01-19T17:00:32.778Z,20.91
2023-01-19T17:03:01.223Z,20.93
2023-01-19T17:05:29.736Z,20.93
2023-01-19T17:07:59.631Z,20.93
2023-01-19T17:10:28.107Z,20.95
2023-01-19T17:12:56.570Z,20.95
2023-01-19T17:15:25.018Z,20.97
2023-01-19T17:17:53.455Z,20.97
2023-01-19T17:20:21.945Z,20.97
2023-01-19T17:22:50.386Z,20.97
2023-01-19T17:25:20.348Z,20.97
2023-01-19T17:27:48.787Z,20.97
2023-01-19T17:30:18.126Z,21.00
2023-01-19T17:32:46.609Z,21.00
2023-01-19T17:35:15.108Z,21.02
2023-01-19T17:37:43.592Z,21.02
2023-01-19T17:40:12.841Z,21.06
2023-01-19T17:42:43.189Z,21.06
2023-01-19T17:45:12.068Z,21.08
2023-01-19T17:47:40.549Z,21.09
2023-01-19T17:50:10.044Z,21.10
2023-01-19T17:52:38.700Z,21.11
2023-01-19T17:55:07.905Z,21.12
2023-01-19T17:57:36.850Z,21.13
2023-01-19T18:00:08.405Z,21.14
2023-01-19T18:02:43.308Z,21.13
2023-01-19T18:05:14.155Z,21.13
2023-01-19T18:07:42.696Z,21.12
2023-01-19T18:10:12.738Z,21.11
2023-01-19T18:12:41.549Z,21.11
2023-01-19T18:15:12.486Z,21.07
2023-01-19T18:17:41.003Z,21.05
2023-01-19T18:20:11.329Z,21.04
2023-01-19T18:22:39.938Z,21.02
2023-01-19T18:25:08.957Z,21.01
2023-01-19T18:27:37.377Z,21.00
2023-01-19T18:30:07.000Z,21.00
2023-01-19T18:32:36.819Z,20.98
2023-01-19T18:35:06.138Z,20.95
2023-01-19T18:37:34.667Z,20.94
2023-01-19T18:40:04.426Z,20.94
2023-01-19T18:42:34.868Z,20.92
2023-01-19T18:45:03.921Z,20.92
2023-01-19T18:47:34.526Z,20.91
2023-01-19T18:50:04.590Z,20.90
2023-01-19T18:52:33.317Z,20.90
2023-01-19T18:55:01.716Z,20.88
2023-01-19T18:57:30.194Z,20.90
2023-01-19T18:59:58.680Z,20.90
2023-01-19T19:02:27.189Z,20.89
2023-01-19T19:04:55.750Z,20.89
2023-01-19T19:07:25.586Z,20.89
2023-01-19T19:09:54.054Z,20.91
2023-01-19T19:12:22.508Z,20.91
2023-01-19T19:14:50.913Z,20.93
2023-01-19T19:17:19.459Z,20.92
2023-01-19T19:19:47.940Z,20.93
2023-01-19T19:22:16.531Z,20.94
2023-01-19T19:24:46.302Z,20.95
2023-01-19T19:27:14.929Z,20.95
2023-01-19T19:29:44.886Z,20.96
2023-01-19T19:32:13.580Z,20.96
2023-01-19T19:34:42.324Z,20.98
2023-01-19T19:37:10.787Z,20.98
2023-01-19T19:39:39.271Z,20.97
2023-01-19T19:42:09.169Z,21.01
2023-01-19T19:44:37.714Z,21.00
2023-01-19T19:47:06.336Z,21.00
2023-01-19T19:49:34.836Z,21.01
2023-01-19T19:52:03.451Z,21.02
2023-01-19T19:54:31.969Z,21.02
2023-01-19T19:57:00.376Z,21.02
2023-01-19T19:59:30.138Z,21.02
2023-01-19T20:01:58.666Z,21.03
2023-01-19T20:04:27.245Z,21.02
2023-01-19T20:06:55.771Z,21.01
2023-01-19T20:09:24.244Z,20.98
2023-01-19T20:11:52.915Z,20.97
2023-01-19T20:14:22.407Z,20.96
2023-01-19T20:16:54.260Z,20.94
2023-01-19T20:19:22.678Z,20.94
2023-01-19T20:21:51.234Z,20.93
2023-01-19T20:24:21.350Z,20.92
2023-01-19T20:26:52.319Z,20.92
2023-01-19T20:29:21.844Z,20.92
2023-01-19T20:31:54.236Z,20.92
2023-01-19T20:34:24.719Z,20.92
2023-01-19T20:36:53.934Z,20.92
2023-01-19T20:39:23.993Z,20.93
2023-01-19T20:41:52.915Z,20.93
2023-01-19T20:44:23.528Z,20.92
2023-01-19T20:46:55.351Z,20.92
2023-01-19T20:49:24.124Z,20.92
2023-01-19T20:51:53.388Z,20.93
2023-01-19T20:54:26.289Z,20.92
2023-01-19T20:56:55.442Z,20.91
2023-01-19T20:59:24.444Z,20.91
2023-01-19T21:01:54.306Z,20.92
2023-01-19T21:04:23.176Z,20.91
2023-01-19T21:06:52.143Z,20.90
2023-01-19T21:09:21.703Z,20.91
2023-01-19T21:11:50.212Z,20.90
2023-01-19T21:14:18.600Z,20.90
2023-01-19T21:16:47.149Z,20.89
2023-01-19T21:19:17.287Z,20.88
2023-01-19T21:21:45.748Z,20.87
2023-01-19T21:24:14.136Z,20.86
2023-01-19T21:26:42.771Z,20.85
2023-01-19T21:29:13.222Z,20.84
2023-01-19T21:31:42.152Z,20.82
2023-01-19T21:34:10.784Z,20.83
2023-01-19T21:36:41.727Z,20.81
2023-01-19T21:39:10.303Z,20.81
2023-01-19T21:41:40.192Z,20.81
2023-01-19T21:44:08.898Z,20.80
2023-01-19T21:46:37.288Z,20.79
2023-01-19T21:49:08.338Z,20.78
2023-01-19T21:51:38.060Z,20.78
2023-01-19T21:54:08.119Z,20.77
2023-01-19T21:56:37.870Z,20.76
2023-01-19T21:59:06.725Z,20.75
2023-01-19T22:01:35.959Z,20.72
2023-01-19T22:04:04.491Z,20.71
2023-01-19T22:06:32.990Z,20.69
2023-01-19T22:09:01.623Z,20.66
2023-01-19T22:11:31.624Z,20.64
2023-01-19T22:14:00.835Z,20.60
2023-01-19T22:16:30.432Z,20.60
2023-01-19T22:19:01.244Z,20.59
2023-01-19T22:21:31.455Z,20.57
2023-01-19T22:24:01.964Z,20.54
2023-01-19T22:26:34.008Z,20.53
2023-01-19T22:29:03.172Z,20.51
2023-01-19T22:31:31.766Z,20.49
2023-01-19T22:34:00.405Z,20.49
2023-01-19T22:36:30.505Z,20.48
2023-01-19T22:39:01.053Z,20.46
2023-01-19T22:41:32.763Z,20.45
2023-01-19T22:44:03.034Z,20.44
2023-01-19T22:46:33.043Z,20.42
2023-01-19T22:49:02.448Z,20.41
2023-01-19T22:51:32.343Z,20.40
2023-01-19T22:54:01.099Z,20.39
2023-01-19T22:56:32.765Z,20.38
2023-01-19T22:59:01.391Z,20.37
2023-01-19T23:01:33.313Z,20.34
2023-01-19T23:04:04.191Z,20.33
2023-01-19T23:06:34.359Z,20.32
2023-01-19T23:09:06.612Z,20.32
2023-01-19T23:11:38.580Z,20.30
2023-01-19T23:14:09.530Z,20.30
2023-01-19T23:16:38.348Z,20.29
2023-01-19T23:19:07.464Z,20.28
2023-01-19T23:21:36.852Z,20.28
2023-01-19T23:24:05.894Z,20.26
2023-01-19T23:26:38.105Z,20.26
2023-01-19T23:29:10.603Z,20.26
2023-01-19T23:31:42.982Z,20.25
2023-01-19T23:34:13.125Z,20.24
2023-01-19T23:36:42.989Z,20.23
2023-01-19T23:39:15.184Z,20.23
2023-01-19T23:41:45.277Z,20.24
2023-01-19T23:44:14.222Z,20.23
2023-01-19T23:46:43.784Z,20.22
2023-01-19T23:49:12.573Z,20.23
2023-01-19T23:51:42.096Z,20.24
2023-01-19T23:54:12.172Z,20.23
2023-01-19T23:56:42.542Z,20.22
2023-01-19T23:59:14.177Z,20.23
